Time;durP1;ratioP1;P1;durP2;ratioP2;P2;SDS_P1;SDS_P2;PMS_P1;PMS_P2;Temp;Humidity;BMP_temperature;BMP_pressure;BME280_temperature;BME280_humidity;BME280_pressure;Samples;Min_cycle;Max_cycle;Signal;HPM_P1;HPM_P2
2022/09/18 00:01:13;;;;;;;12.70;2.95;;;;;;;9.61;100.00;101558.44;5115839;28;20543;-45
2022/09/18 00:03:40;;;;;;;14.23;2.88;;;;;;;9.66;100.00;101543.19;5115746;28;20039;-47
2022/09/18 00:06:10;;;;;;;13.93;2.50;;;;;;;9.66;100.00;101535.47;5115742;28;20015;-46
2022/09/18 00:08:39;;;;;;;11.88;2.80;;;;;;;9.64;100.00;101543.09;5116364;28;20028;-45
2022/09/18 00:11:07;;;;;;;12.85;2.42;;;;;;;9.61;100.00;101548.13;5115008;28;20027;-46
2022/09/18 00:13:33;;;;;;;;;;;;;;;9.66;100.00;101533.78;5116174;28;20080;-47
2022/09/18 00:15:59;;;;;;;13.13;2.75;;;;;;;9.61;100.00;101531.81;5116037;28;19911;-47
2022/09/18 00:18:24;;;;;;;12.60;2.97;;;;;;;9.59;100.00;101530.84;5115141;28;20030;-49
2022/09/18 00:20:49;;;;;;;12.05;3.70;;;;;;;9.57;100.00;101530.81;5115612;28;20023;-47
2022/09/18 00:23:15;;;;;;;12.30;3.38;;;;;;;9.58;100.00;101531.66;5115778;28;20088;-47
2022/09/18 00:25:40;;;;;;;9.63;3.70;;;;;;;9.60;100.00;101535.19;5115428;28;20023;-45
2022/09/18 00:28:06;;;;;;;14.48;4.20;;;;;;;9.59;100.00;101533.44;5115356;28;20028;-45
2022/09/18 00:30:31;;;;;;;13.27;4.15;;;;;;;9.60;100.00;101537.78;5115636;28;20015;-45
2022/09/18 00:32:56;;;;;;;17.90;4.65;;;;;;;9.60;100.00;101527.47;5115152;28;20026;-46
2022/09/18 00:35:21;;;;;;;13.50;4.05;;;;;;;9.58;100.00;101524.84;5115121;28;20390;-47
2022/09/18 00:37:47;;;;;;;14.90;4.28;;;;;;;9.60;100.00;101520.63;5115409;28;20040;-45
2022/09/18 00:40:14;;;;;;;13.55;4.07;;;;;;;9.57;100.00;101525.66;5114909;28;20362;-44
2022/09/18 00:42:39;;;;;;;13.93;4.50;;;;;;;9.59;100.00;101528.28;5115306;28;20424;-47
2022/09/18 00:45:05;;;;;;;16.52;4.47;;;;;;;9.58;100.00;101537.72;5115205;28;20478;-45
2022/09/18 00:47:45;;;;;;;16.42;4.60;;;;;;;9.61;100.00;101537.84;5114852;28;20034;-45
2022/09/18 00:50:15;;;;;;;14.48;4.07;;;;;;;9.63;100.00;101532.75;5117510;27;20058;-45
2022/09/18 00:53:00;;;;;;;15.73;4.22;;;;;;;9.64;100.00;101534.53;5114721;28;20032;-49
2022/09/18 00:55:31;;;;;;;14.75;4.10;;;;;;;9.63;100.00;101530.19;5114688;28;20446;-44
2022/09/18 00:57:58;;;;;;;14.02;4.00;;;;;;;9.65;100.00;101533.72;5115137;28;20382;-47
2022/09/18 01:00:24;;;;;;;13.15;3.58;;;;;;;9.63;100.00;101548.19;5113842;28;20379;-47
2022/09/18 01:02:49;;;;;;;12.07;3.15;;;;;;;9.64;100.00;101548.25;5114782;28;20534;-47
2022/09/18 01:05:37;;;;;;;12.32;3.42;;;;;;;9.63;100.00;101546.53;5114921;28;20155;-47
2022/09/18 01:08:20;;;;;;;13.68;3.85;;;;;;;9.66;100.00;101541.50;5062543;28;20044;-48
2022/09/18 01:11:08;;;;;;;15.15;4.15;;;;;;;9.66;100.00;101546.66;5114711;28;20027;-45
2022/09/18 01:13:51;;;;;;;15.63;4.07;;;;;;;9.68;100.00;101538.97;5114241;28;20490;-45
2022/09/18 01:16:24;;;;;;;16.27;4.22;;;;;;;9.65;100.00;101555.16;5114257;28;20036;-48
2022/09/18 01:19:04;;;;;;;13.82;3.88;;;;;;;9.67;100.00;101550.09;5114650;28;20059;-48
2022/09/18 01:21:46;;;;;;;12.00;3.78;;;;;;;9.67;100.00;101544.94;5113977;28;20024;-50
2022/09/18 01:24:33;;;;;;;14.68;3.78;;;;;;;9.68;100.00;101533.84;5114321;28;20422;-47
2022/09/18 01:27:05;;;;;;;13.68;4.10;;;;;;;9.64;100.00;101529.38;5114506;28;20467;-45
2022/09/18 01:29:46;;;;;;;13.02;3.50;;;;;;;9.63;100.00;101536.22;5113913;28;20080;-47
2022/09/18 01:32:24;;;;;;;16.85;3.72;;;;;;;9.64;100.00;101537.09;5113955;28;20028;-46
2022/09/18 01:34:55;;;;;;;;;;;;;;;9.68;100.00;101528.69;5114480;28;20012;-46
2022/09/18 01:37:38;;;;;;;13.13;2.97;;;;;;;9.62;100.00;101529.31;5113795;28;19923;-46
2022/09/18 01:40:11;;;;;;;15.98;2.92;;;;;;;9.59;100.00;101529.16;5114129;28;20743;-48
2022/09/18 01:42:38;;;;;;;11.45;3.00;;;;;;;9.56;100.00;101529.91;5113762;28;20466;-46
2022/09/18 01:45:09;;;;;;;12.27;2.65;;;;;;;9.54;100.00;101530.63;5114014;28;20031;-47
2022/09/18 01:47:40;;;;;;;12.65;3.03;;;;;;;9.52;100.00;101527.13;5114423;28;20108;-47
2022/09/18 01:50:08;;;;;;;11.45;2.72;;;;;;;9.50;100.00;101529.66;5113439;28;20034;-47
2022/09/18 01:52:43;;;;;;;16.90;3.50;;;;;;;9.48;100.00;101525.25;5113943;28;20028;-46
2022/09/18 01:55:15;;;;;;;10.38;2.90;;;;;;;9.46;100.00;101535.44;5113844;28;20498;-48
2022/09/18 01:57:48;;;;;;;12.90;3.60;;;;;;;9.49;100.00;101521.84;5113374;28;20019;-48
2022/09/18 02:00:13;;;;;;;17.33;4.43;;;;;;;9.43;100.00;101507.00;5113598;28;20028;-47
2022/09/18 02:02:50;;;;;;;16.08;4.50;;;;;;;9.44;100.00;101513.94;5113463;28;20103;-46
2022/09/18 02:05:42;;;;;;;13.15;4.65;;;;;;;9.47;100.00;101519.19;5113659;28;20031;-46
2022/09/18 02:08:16;;;;;;;11.13;5.57;;;;;;;9.48;100.00;101525.25;5113708;28;20039;-48
2022/09/18 02:10:47;;;;;;;14.07;5.75;;;;;;;9.49;100.00;101522.72;5113335;28;20023;-45
2022/09/18 02:13:17;;;;;;;16.95;6.25;;;;;;;9.50;100.00;101524.50;5113349;28;20028;-45
2022/09/18 02:15:46;;;;;;;16.10;6.57;;;;;;;9.49;100.00;101515.00;5113734;28;20374;-50
2022/09/18 02:18:21;;;;;;;17.02;7.88;;;;;;;9.50;100.00;101511.63;5113017;28;20045;-47
2022/09/18 02:20:47;;;;;;;18.08;8.05;;;;;;;9.52;100.00;101510.00;5113412;28;20447;-45
2022/09/18 02:23:13;;;;;;;17.98;8.18;;;;;;;9.52;100.00;101507.41;5113439;28;20027;-46
2022/09/18 02:25:53;;;;;;;16.02;8.38;;;;;;;9.53;100.00;101509.19;5113016;28;20115;-46
2022/09/18 02:28:22;;;;;;;23.63;9.02;;;;;;;9.54;100.00;101500.66;5113409;28;20023;-45
2022/09/18 02:30:47;;;;;;;14.68;8.50;;;;;;;9.54;100.00;101495.50;5113128;28;20037;-46
2022/09/18 02:33:33;;;;;;;21.35;8.77;;;;;;;9.57;100.00;101494.78;5112939;28;20098;-47
2022/09/18 02:36:12;;;;;;;20.20;8.93;;;;;;;9.56;100.00;101493.88;5113481;28;20066;-46
2022/09/18 02:38:59;;;;;;;22.27;8.32;;;;;;;9.59;100.00;101497.41;5112662;28;20047;-45
2022/09/18 02:41:56;;;;;;;18.02;8.15;;;;;;;9.59;100.00;101487.97;5113186;28;20055;-48
2022/09/18 02:44:40;;;;;;;19.33;7.97;;;;;;;9.61;100.00;101490.66;5061467;28;20044;-49
2022/09/18 02:47:36;;;;;;;16.70;7.00;;;;;;;9.62;100.00;101487.22;5112799;28;20051;-49
2022/09/18 02:50:10;;;;;;;19.45;7.20;;;;;;;9.63;100.00;101494.16;5113699;28;20036;-44
2022/09/18 02:52:50;;;;;;;15.60;6.00;;;;;;;9.65;100.00;101500.25;5113603;28;20023;-45
2022/09/18 02:55:21;;;;;;;20.00;7.30;;;;;;;9.66;100.00;101494.31;5113038;28;20032;-47
2022/09/18 02:57:59;;;;;;;15.85;6.90;;;;;;;9.68;100.00;101493.56;5113374;28;20039;-47
2022/09/18 03:00:26;;;;;;;18.27;7.22;;;;;;;9.69;100.00;101486.69;5112275;28;20035;-47
2022/09/18 03:02:51;;;;;;;14.85;5.32;;;;;;;9.68;100.00;101490.09;5112870;28;20459;-46
2022/09/18 03:05:16;;;;;;;17.00;5.53;;;;;;;9.68;100.00;101487.50;5112902;28;20148;-47
2022/09/18 03:07:42;;;;;;;13.75;5.60;;;;;;;9.65;100.00;101482.25;5112873;28;20043;-45
2022/09/18 03:10:08;;;;;;;19.17;5.63;;;;;;;9.67;100.00;101486.63;5112880;28;20386;-48
2022/09/18 03:12:34;;;;;;;17.65;5.43;;;;;;;9.66;100.00;101478.84;5113259;28;20031;-46
2022/09/18 03:14:59;;;;;;;19.02;5.32;;;;;;;9.66;100.00;101486.56;5112676;28;20359;-47
2022/09/18 03:17:24;;;;;;;15.27;5.30;;;;;;;9.67;100.00;101480.59;5112473;28;20019;-44
2022/09/18 03:19:50;;;;;;;13.05;4.60;;;;;;;9.67;100.00;101481.50;5112862;28;20085;-46
2022/09/18 03:22:15;;;;;;;18.42;4.43;;;;;;;9.68;100.00;101472.06;5112460;28;20455;-45
2022/09/18 03:24:40;;;;;;;16.90;4.50;;;;;;;9.71;100.00;101477.38;5112912;28;20052;-45
2022/09/18 03:27:05;;;;;;;16.58;5.07;;;;;;;9.72;100.00;101468.81;5112302;28;20043;-45
2022/09/18 03:29:31;;;;;;;19.65;4.20;;;;;;;9.70;100.00;101467.88;5112938;28;20024;-46
2022/09/18 03:31:57;;;;;;;19.42;4.50;;;;;;;9.72;100.00;101466.22;5113007;28;20132;-46
2022/09/18 03:34:22;;;;;;;11.48;4.03;;;;;;;9.74;100.00;101461.16;5112259;28;20386;-45
2022/09/18 03:36:47;;;;;;;18.05;4.20;;;;;;;9.72;100.00;101461.97;5112686;28;20471;-46
2022/09/18 03:39:13;;;;;;;14.77;3.53;;;;;;;9.73;100.00;101460.28;5112444;28;20398;-47
2022/09/18 03:41:38;;;;;;;15.90;3.55;;;;;;;9.74;100.00;101461.16;5112295;28;20112;-46
2022/09/18 03:44:04;;;;;;;12.10;3.33;;;;;;;9.73;100.00;101455.13;5112492;28;20035;-46
2022/09/18 03:46:29;;;;;;;16.42;3.78;;;;;;;9.75;100.00;101461.22;5115222;28;20489;-48
2022/09/18 03:48:54;;;;;;;14.93;3.55;;;;;;;9.70;100.00;101458.44;5116036;28;20149;-45
2022/09/18 03:51:20;;;;;;;17.98;3.50;;;;;;;9.73;100.00;101460.28;5115897;28;20382;-46
2022/09/18 03:53:46;;;;;;;18.60;3.15;;;;;;;9.69;100.00;101454.09;5116676;28;20024;-48
2022/09/18 03:56:12;;;;;;;17.20;3.25;;;;;;;9.69;100.00;101448.97;5115505;28;20116;-45
2022/09/18 03:58:38;;;;;;;19.45;3.28;;;;;;;9.69;100.00;101458.38;5116011;28;20486;-45
2022/09/18 04:01:05;;;;;;;11.75;2.85;;;;;;;9.68;100.00;101448.91;5116207;28;20055;-46
2022/09/18 04:03:31;;;;;;;11.77;3.33;;;;;;;9.66;100.00;101447.97;5115766;28;20024;-47
2022/09/18 04:05:56;;;;;;;14.00;2.72;;;;;;;9.64;100.00;101447.88;5115918;28;20028;-45
2022/09/18 04:08:21;;;;;;;12.80;2.67;;;;;;;9.65;100.00;101448.78;5116158;28;20080;-50
2022/09/18 04:10:47;;;;;;;11.93;2.55;;;;;;;9.63;100.00;101459.00;5115692;28;20027;-48
2022/09/18 04:13:12;;;;;;;13.55;2.25;;;;;;;9.63;100.00;101447.81;5115634;28;20382;-48
2022/09/18 04:15:37;;;;;;;9.55;2.38;;;;;;;9.64;100.00;101459.88;5115976;28;20088;-45
2022/09/18 04:18:03;;;;;;;7.78;2.40;;;;;;;9.64;100.00;101454.72;5115151;28;20112;-46
2022/09/18 04:20:28;;;;;;;9.63;2.88;;;;;;;9.65;100.00;101453.94;5115544;28;20432;-47
2022/09/18 04:22:53;;;;;;;13.45;2.72;;;;;;;9.64;100.00;101454.72;5116076;28;20030;-45
2022/09/18 04:25:19;;;;;;;10.45;2.30;;;;;;;9.64;100.00;101449.59;5115210;28;20356;-47
2022/09/18 04:27:47;;;;;;;15.98;2.45;;;;;;;9.60;100.00;101451.13;5115682;28;20023;-45
2022/09/18 04:30:13;;;;;;;13.30;2.58;;;;;;;9.61;100.00;101447.75;5115528;28;20050;-46
2022/09/18 04:32:38;;;;;;;11.48;2.42;;;;;;;9.59;100.00;101445.94;5114971;28;20476;-46
2022/09/18 04:35:04;;;;;;;12.48;2.53;;;;;;;9.59;100.00;101457.09;5115391;28;20035;-45
2022/09/18 04:37:30;;;;;;;15.63;2.42;;;;;;;9.60;100.00;101452.84;5114996;28;20040;-46
2022/09/18 04:39:55;;;;;;;13.10;2.67;;;;;;;9.60;100.00;101451.13;5115466;28;20032;-46
2022/09/18 04:42:21;;;;;;;13.05;2.65;;;;;;;9.60;100.00;101453.72;5115417;28;20038;-48
2022/09/18 04:44:46;;;;;;;9.98;2.40;;;;;;;9.61;100.00;101462.34;5115108;28;20020;-46
2022/09/18 04:47:12;;;;;;;12.52;2.10;;;;;;;9.61;100.00;101449.47;5115013;28;20027;-45
2022/09/18 04:49:37;;;;;;;13.30;2.30;;;;;;;9.61;100.00;101454.63;5115307;28;20031;-47
2022/09/18 04:52:02;;;;;;;11.23;2.55;;;;;;;9.60;100.00;101458.00;5117334;27;20070;-46
2022/09/18 04:54:27;;;;;;;12.68;2.50;;;;;;;9.60;100.00;101458.00;5115247;28;20035;-45
2022/09/18 04:56:53;;;;;;;13.90;2.88;;;;;;;9.58;100.00;101454.47;5114999;28;20024;-47
2022/09/18 04:59:18;;;;;;;11.95;2.65;;;;;;;9.58;100.00;101450.22;5114378;28;20360;-49
2022/09/18 05:01:43;;;;;;;16.23;2.80;;;;;;;9.56;100.00;101447.53;5114467;28;20035;-46
2022/09/18 05:04:09;;;;;;;15.25;2.67;;;;;;;9.56;100.00;101446.69;5114680;28;20033;-48
2022/09/18 05:06:34;;;;;;;11.00;2.53;;;;;;;9.56;100.00;101451.81;5114707;28;20039;-46
2022/09/18 05:09:00;;;;;;;15.18;2.55;;;;;;;9.54;100.00;101448.28;5114827;28;20107;-46
2022/09/18 05:11:25;;;;;;;11.25;2.50;;;;;;;9.55;100.00;101455.22;5114743;28;20039;-47
2022/09/18 05:13:55;;;;;;;12.65;2.33;;;;;;;9.54;100.00;101462.06;5114201;28;20467;-45
2022/09/18 05:16:20;;;;;;;11.35;2.63;;;;;;;9.56;100.00;101457.84;5114316;28;20023;-45
2022/09/18 05:18:45;;;;;;;12.50;3.08;;;;;;;9.58;100.00;101455.38;5114450;28;20068;-50
2022/09/18 05:21:11;;;;;;;13.35;2.92;;;;;;;9.56;100.00;101452.69;5114119;28;20020;-46
2022/09/18 05:23:36;;;;;;;13.68;2.88;;;;;;;9.56;100.00;101457.84;5114413;28;20031;-47
2022/09/18 05:26:02;;;;;;;11.73;2.63;;;;;;;9.58;100.00;101459.59;5114349;28;20023;-45
2022/09/18 05:28:27;;;;;;;12.30;2.47;;;;;;;9.58;100.00;101449.31;5114005;28;20028;-46
2022/09/18 05:30:57;;;;;;;11.73;2.42;;;;;;;9.56;100.00;101455.28;5114255;28;20375;-51
2022/09/18 05:33:22;;;;;;;8.18;2.40;;;;;;;9.56;100.00;101452.69;5114252;28;20030;-46
2022/09/18 05:35:52;;;;;;;13.15;2.40;;;;;;;9.58;100.00;101464.75;5113898;28;20019;-49
2022/09/18 05:38:18;;;;;;;10.80;2.75;;;;;;;9.59;100.00;101466.53;5113906;28;20075;-49
2022/09/18 05:40:43;;;;;;;13.85;2.60;;;;;;;9.59;100.00;101459.66;5113814;28;20051;-49
2022/09/18 05:43:09;;;;;;;11.52;2.55;;;;;;;9.60;100.00;101458.00;5113826;28;20374;-47
2022/09/18 05:45:34;;;;;;;8.63;2.22;;;;;;;9.60;100.00;101453.72;5114228;28;20019;-47
2022/09/18 05:48:03;;;;;;;12.98;2.13;;;;;;;9.60;100.00;101458.00;5113634;28;20032;-50
2022/09/18 05:50:29;;;;;;;10.65;2.38;;;;;;;9.62;100.00;101456.34;5114023;28;20030;-46
2022/09/18 05:53:06;;;;;;;12.20;2.28;;;;;;;9.64;100.00;101453.03;5114261;28;20031;-49
2022/09/18 05:55:32;;;;;;;14.93;2.42;;;;;;;9.67;100.00;101455.75;5113700;28;20047;-46
2022/09/18 05:57:59;;;;;;;12.00;3.13;;;;;;;9.68;100.00;101461.78;5113755;28;20085;-47
2022/09/18 06:00:26;;;;;;;12.38;2.70;;;;;;;9.63;100.00;101453.88;5113709;28;20032;-47
2022/09/18 06:02:54;;;;;;;16.23;2.53;;;;;;;9.64;100.00;101465.91;5113801;28;20039;-51
2022/09/18 06:05:20;;;;;;;11.82;2.60;;;;;;;9.63;100.00;101464.16;5113613;28;20104;-46
2022/09/18 06:07:45;;;;;;;9.15;2.42;;;;;;;9.67;100.00;101472.88;5113746;28;20451;-50
2022/09/18 06:10:11;;;;;;;10.93;2.50;;;;;;;9.70;100.00;101460.16;5112869;28;20034;-50
2022/09/18 06:12:36;;;;;;;11.15;2.50;;;;;;;9.78;100.00;101448.47;5113704;28;20081;-45
2022/09/18 06:15:02;;;;;;;14.93;2.88;;;;;;;9.78;100.00;101451.06;5113467;28;20462;-48
2022/09/18 06:17:27;;;;;;;11.40;2.90;;;;;;;9.82;100.00;101455.50;5113301;28;20032;-46
2022/09/18 06:19:52;;;;;;;9.10;3.05;;;;;;;9.89;100.00;101457.53;5113264;28;20070;-48
2022/09/18 06:22:18;;;;;;;11.30;2.60;;;;;;;9.94;100.00;101454.28;5113378;28;20031;-46
2022/09/18 06:24:43;;;;;;;11.35;2.35;;;;;;;9.98;100.00;101451.00;5113130;28;20133;-46
2022/09/18 06:27:09;;;;;;;10.90;2.00;;;;;;;10.03;100.00;101452.06;5113314;28;20027;-48
2022/09/18 06:29:34;;;;;;;9.52;1.92;;;;;;;10.12;100.00;101447.34;5113482;28;20478;-45
2022/09/18 06:31:59;;;;;;;9.98;2.50;;;;;;;10.15;100.00;101452.59;5112967;28;20546;-48
2022/09/18 06:34:24;;;;;;;10.70;2.00;;;;;;;10.22;100.00;101448.56;5113379;28;20031;-45
2022/09/18 06:36:50;;;;;;;8.23;1.48;;;;;;;10.24;100.00;101451.19;5113601;28;20394;-46
2022/09/18 06:39:15;;;;;;;9.45;2.05;;;;;;;10.28;100.00;101445.38;5112094;28;20153;-49
2022/09/18 06:41:41;;;;;;;11.77;1.80;;;;;;;10.37;100.00;101440.63;5113287;28;20454;-46
2022/09/18 06:44:07;;;;;;;10.68;2.35;;;;;;;10.42;100.00;101449.41;5113444;28;20015;-46
2022/09/18 06:46:32;;;;;;;11.57;2.53;;;;;;;10.42;100.00;101459.72;5122698;28;20111;-45
2022/09/18 06:48:58;;;;;;;8.07;2.25;;;;;;;10.47;100.00;101454.72;5112811;28;20194;-46
2022/09/18 06:51:23;;;;;;;11.05;2.60;;;;;;;10.43;100.00;101458.91;5125881;28;20027;-45
2022/09/18 06:53:49;;;;;;;12.00;2.63;;;;;;;10.42;100.00;101457.16;5117201;28;20023;-45
2022/09/18 06:56:14;;;;;;;12.02;2.83;;;;;;;10.43;100.00;101458.91;5121357;28;20031;-45
2022/09/18 06:58:39;;;;;;;12.07;3.00;;;;;;;10.44;100.00;101457.19;5115512;28;20027;-45
2022/09/18 07:01:04;;;;;;;9.93;2.42;;;;;;;10.46;100.00;101451.28;5116167;28;20027;-46
2022/09/18 07:03:30;;;;;;;12.02;2.83;;;;;;;10.48;100.00;101446.19;5125093;28;20463;-45
2022/09/18 07:05:55;;;;;;;11.68;2.53;;;;;;;10.48;100.00;101454.81;5111387;28;20024;-48
2022/09/18 07:08:20;;;;;;;9.23;2.78;;;;;;;10.51;100.00;101447.19;5122979;28;20024;-45
2022/09/18 07:10:45;;;;;;;13.35;3.63;;;;;;;10.58;100.00;101456.03;5120536;28;20015;-47
2022/09/18 07:13:11;;;;;;;12.45;3.40;;;;;;;10.58;100.00;101450.03;5113382;28;20463;-46
2022/09/18 07:15:36;;;;;;;9.20;2.78;;;;;;;10.61;100.00;101450.13;5120981;28;20084;-48
2022/09/18 07:18:03;;;;;;;11.00;3.00;;;;;;;10.61;100.00;101445.84;5120615;28;20027;-46
2022/09/18 07:20:29;;;;;;;14.32;3.47;;;;;;;10.65;100.00;101441.69;5119504;27;20042;-45
2022/09/18 07:22:59;;;;;;;10.52;2.92;;;;;;;10.64;100.00;101447.66;5123533;27;20076;-45
2022/09/18 07:25:26;;;;;;;13.25;3.72;;;;;;;10.69;100.00;101453.88;5121089;27;20115;-48
2022/09/18 07:27:52;;;;;;;14.50;3.50;;;;;;;10.72;100.00;101456.59;5115381;27;20019;-46
2022/09/18 07:30:17;;;;;;;12.93;3.22;;;;;;;10.69;100.00;101443.56;5116498;28;20024;-46
2022/09/18 07:32:43;;;;;;;14.32;3.83;;;;;;;10.74;100.00;101447.19;5118859;27;20034;-47
2022/09/18 07:35:09;;;;;;;12.88;3.90;;;;;;;10.71;100.00;101441.94;5115549;27;20035;-45
2022/09/18 07:37:35;;;;;;;14.48;4.43;;;;;;;10.76;100.00;101432.69;5119653;27;20047;-48
2022/09/18 07:40:00;;;;;;;15.13;3.80;;;;;;;10.82;100.00;101437.19;5119675;27;20035;-45
2022/09/18 07:42:26;;;;;;;13.70;3.78;;;;;;;10.92;100.00;101438.41;5115651;28;20028;-45
2022/09/18 07:44:52;;;;;;;9.80;3.40;;;;;;;10.95;100.00;101431.69;5116201;27;20028;-45
2022/09/18 07:47:17;;;;;;;9.40;3.90;;;;;;;11.06;100.00;101424.31;5122238;27;20030;-45
2022/09/18 07:49:43;;;;;;;13.05;4.07;;;;;;;11.14;100.00;101428.09;5119968;27;20027;-45
2022/09/18 07:52:08;;;;;;;14.88;4.43;;;;;;;11.19;100.00;101421.41;5116233;28;20468;-46
2022/09/18 07:54:33;;;;;;;13.80;4.70;;;;;;;11.30;100.00;101418.31;5115920;28;20023;-46
2022/09/18 07:56:59;;;;;;;14.10;4.22;;;;;;;11.35;100.00;101421.94;5116087;28;20038;-46
2022/09/18 07:59:24;;;;;;;12.77;4.15;;;;;;;11.50;100.00;101422.50;5115708;27;20039;-44
2022/09/18 08:01:51;;;;;;;12.77;4.40;;;;;;;11.59;100.00;101416.75;5120267;27;20107;-45
2022/09/18 08:04:16;;;;;;;15.40;4.00;;;;;;;11.72;100.00;101420.63;5125030;27;20145;-48
2022/09/18 08:06:42;;;;;;;10.93;4.25;;;;;;;11.89;100.00;101415.16;5126826;27;20102;-46
2022/09/18 08:09:07;;;;;;;12.20;4.30;;;;;;;11.98;100.00;101416.38;5126388;27;20019;-44
2022/09/18 08:11:32;;;;;;;14.73;4.35;;;;;;;12.05;100.00;101417.44;5124698;27;20024;-44
2022/09/18 08:13:58;;;;;;;14.68;4.40;;;;;;;12.08;100.00;101417.53;5124036;27;20155;-44
2022/09/18 08:16:23;;;;;;;10.20;3.63;;;;;;;12.29;100.00;101431.97;5120361;27;20027;-45
2022/09/18 08:18:48;;;;;;;11.27;3.92;;;;;;;12.17;100.00;101438.53;5119846;27;20023;-45
2022/09/18 08:21:14;;;;;;;7.55;3.30;;;;;;;12.01;100.00;101431.97;5115724;28;20031;-47
2022/09/18 08:23:39;;;;;;;14.90;3.58;;;;;;;11.97;100.00;101429.25;5115385;28;20015;-47
2022/09/18 08:26:05;;;;;;;11.20;3.88;;;;;;;11.96;100.00;101422.31;5115199;28;20024;-46
2022/09/18 08:28:30;;;;;;;11.30;3.47;;;;;;;11.98;100.00;101420.66;5115968;28;20016;-48
2022/09/18 08:30:56;;;;;;;11.55;4.15;;;;;;;12.02;100.00;101419.94;5118291;27;20389;-45
2022/09/18 08:33:22;;;;;;;11.38;3.40;;;;;;;12.01;100.00;101423.34;5126603;27;20024;-44
2022/09/18 08:35:47;;;;;;;18.50;3.75;;;;;;;12.11;100.00;101428.00;5122651;27;20474;-47
2022/09/18 08:38:13;;;;;;;9.50;2.97;;;;;;;12.21;100.00;101428.28;5120375;27;20142;-45
2022/09/18 08:40:40;;;;;;;11.38;2.97;;;;;;;12.17;100.00;101433.38;5115643;28;20028;-45
2022/09/18 08:43:18;;;;;;;9.57;2.33;;;;;;;12.26;100.00;101434.47;5115290;28;20107;-46
2022/09/18 08:45:54;;;;;;;9.95;2.75;;;;;;;12.45;100.00;101428.19;5114921;28;20020;-44
2022/09/18 08:48:26;;;;;;;9.53;2.40;;;;;;;12.51;100.00;101424.09;5115091;28;21066;-46
2022/09/18 08:50:59;;;;;;;7.65;1.83;;;;;;;12.56;100.00;101416.44;5134999;27;20484;-46
2022/09/18 08:53:33;;;;;;;7.90;1.90;;;;;;;12.66;100.00;101430.56;5123965;27;20027;-46
2022/09/18 08:56:00;;;;;;;9.10;2.17;;;;;;;12.67;100.00;101429.72;5115210;28;20383;-48
2022/09/18 08:58:39;;;;;;;9.47;2.07;;;;;;;12.62;100.00;101420.94;5113629;27;20024;-44
2022/09/18 09:01:11;;;;;;;9.77;1.60;;;;;;;12.59;100.00;101426.00;5114064;27;20300;-45
2022/09/18 09:03:59;;;;;;;8.63;1.80;;;;;;;12.52;100.00;101423.25;5115229;27;20034;-45
2022/09/18 09:06:49;;;;;;;11.95;2.05;;;;;;;12.58;100.00;101432.03;5118046;27;20059;-50
2022/09/18 09:09:36;;;;;;;11.40;1.80;;;;;;;12.63;100.00;101435.66;5135366;27;20023;-46
2022/09/18 09:12:15;;;;;;;10.25;1.75;;;;;;;12.76;100.00;101429.13;5134826;27;20167;-46
2022/09/18 09:15:24;;;;;;;6.05;1.60;;;;;;;12.78;100.00;101435.22;5135350;27;20106;-46
2022/09/18 09:18:14;;;;;;;9.80;2.00;;;;;;;12.63;100.00;101433.91;5103499;27;20046;-50
2022/09/18 09:20:53;;;;;;;7.00;1.90;;;;;;;12.52;100.00;101433.59;5134783;27;20161;-45
2022/09/18 09:24:12;;;;;;;10.95;1.60;;;;;;;12.44;100.00;101447.13;5134140;27;20035;-46
2022/09/18 09:26:39;;;;;;;9.02;2.30;;;;;;;12.26;100.00;101440.50;5080000;28;20086;-47
2022/09/18 09:29:18;;;;;;;8.48;2.00;;;;;;;12.18;100.00;101435.09;5071283;28;20021;-45
2022/09/18 09:31:50;;;;;;;8.60;2.05;;;;;;;12.05;100.00;101440.72;5095922;28;20482;-49
2022/09/18 09:34:20;;;;;;;7.70;1.88;;;;;;;12.16;100.00;101438.47;5113409;28;20367;-45
2022/09/18 09:36:52;;;;;;;7.70;2.00;;;;;;;12.13;100.00;101436.66;5114455;28;20103;-46
2022/09/18 09:39:18;;;;;;;6.95;2.10;;;;;;;12.16;100.00;101436.78;5113768;28;20100;-45
2022/09/18 09:42:06;;;;;;;7.27;1.60;;;;;;;12.24;100.00;101438.72;5113725;28;20031;-47
2022/09/18 09:44:48;;;;;;;6.72;1.35;;;;;;;12.15;100.00;101432.44;5116235;27;20289;-48
2022/09/18 09:47:44;;;;;;;7.20;1.67;;;;;;;12.17;100.00;101423.03;5113453;28;20047;-45
2022/09/18 09:50:16;;;;;;;7.60;1.83;;;;;;;12.19;100.00;101426.53;5113951;28;20020;-46
2022/09/18 09:52:45;;;;;;;7.90;1.58;;;;;;;12.14;100.00;101422.91;5114298;28;20368;-49
2022/09/18 09:55:13;;;;;;;5.15;1.33;;;;;;;12.11;100.00;101417.66;5113295;28;20073;-46
2022/09/18 09:58:14;;;;;;;8.82;1.45;;;;;;;12.15;100.00;101404.00;5113869;28;20420;-49
2022/09/18 10:00:58;;;;;;;4.53;1.27;;;;;;;12.22;100.00;101399.03;5114046;28;20157;-45
2022/09/18 10:03:44;;;;;;;9.30;1.60;;;;;;;12.48;100.00;101405.88;5114317;27;20038;-45
2022/09/18 10:06:27;;;;;;;6.72;1.60;;;;;;;12.63;100.00;101402.03;5113545;28;20370;-45
2022/09/18 10:09:08;;;;;;;7.82;1.50;;;;;;;12.81;100.00;101397.38;5113328;28;20375;-45
2022/09/18 10:11:39;;;;;;;6.75;1.40;;;;;;;13.01;100.00;101392.78;5113803;28;20023;-49
2022/09/18 10:14:12;;;;;;;8.80;1.90;;;;;;;13.01;100.00;101399.66;5113616;28;20030;-45
2022/09/18 10:16:42;;;;;;;7.03;1.50;;;;;;;13.16;100.00;101389.75;5113016;28;20051;-46
2022/09/18 10:19:12;;;;;;;7.38;1.48;;;;;;;13.67;100.00;101387.66;5113476;28;20081;-45
2022/09/18 10:21:40;;;;;;;7.13;1.25;;;;;;;13.69;96.68;101391.16;5113865;28;20111;-51
2022/09/18 10:24:13;;;;;;;6.32;1.40;;;;;;;13.70;97.37;101392.94;5112708;28;20024;-46
2022/09/18 10:26:57;;;;;;;6.60;1.65;;;;;;;13.94;97.32;101396.97;5113654;28;20050;-45
2022/09/18 10:29:22;;;;;;;6.72;1.80;;;;;;;13.91;95.34;101402.06;5112986;28;20026;-47
2022/09/18 10:31:49;;;;;;;4.72;1.23;;;;;;;13.94;95.27;101396.97;5113451;28;20020;-46
2022/09/18 10:34:31;;;;;;;5.60;1.50;;;;;;;14.04;97.66;101398.06;5113406;28;20023;-47
2022/09/18 10:36:56;;;;;;;7.50;1.70;;;;;;;14.23;95.90;101399.34;5112995;28;20470;-45
2022/09/18 10:39:30;;;;;;;5.53;1.45;;;;;;;14.31;94.10;101392.66;5112679;28;20071;-46
2022/09/18 10:42:01;;;;;;;5.82;1.45;;;;;;;14.28;93.66;101393.47;5113594;28;20027;-45
2022/09/18 10:44:28;;;;;;;7.03;1.40;;;;;;;14.18;92.96;101388.00;5112793;28;20023;-49
2022/09/18 10:46:59;;;;;;;7.38;1.58;;;;;;;13.96;92.42;101400.47;5113559;28;20027;-47
2022/09/18 10:49:29;;;;;;;6.45;1.15;;;;;;;13.66;93.71;101404.91;5113065;28;20806;-47
2022/09/18 10:52:18;;;;;;;11.00;1.52;;;;;;;13.51;95.55;101404.50;5112592;28;20073;-49
2022/09/18 10:55:01;;;;;;;8.82;1.70;;;;;;;13.25;99.09;101414.16;5114942;28;20027;-46
2022/09/18 10:57:33;;;;;;;11.27;2.58;;;;;;;12.91;100.00;101415.75;5117037;28;20085;-46
2022/09/18 10:59:59;;;;;;;7.30;1.70;;;;;;;12.64;99.34;101415.00;5117299;28;20031;-47
2022/09/18 11:02:27;;;;;;;5.07;1.10;;;;;;;12.39;98.59;101412.50;5117259;28;20493;-45
2022/09/18 11:04:53;;;;;;;6.30;1.17;;;;;;;12.32;100.00;101417.47;5117082;28;20061;-46
2022/09/18 11:07:22;;;;;;;5.75;0.90;;;;;;;12.20;99.86;101406.75;5117067;28;20051;-45
2022/09/18 11:09:49;;;;;;;5.57;0.88;;;;;;;12.14;99.71;101416.88;5117311;28;20436;-46
2022/09/18 11:12:23;;;;;;;3.65;1.13;;;;;;;12.08;98.60;101407.22;5116447;28;20356;-46
2022/09/18 11:15:08;;;;;;;5.35;1.27;;;;;;;12.12;99.83;101414.25;5117035;28;20031;-47
2022/09/18 11:17:41;;;;;;;3.97;0.90;;;;;;;12.07;99.24;101415.81;5117376;28;20088;-45
2022/09/18 11:20:18;;;;;;;8.07;1.10;;;;;;;12.26;100.00;101406.06;5116127;28;20028;-46
2022/09/18 11:22:44;;;;;;;6.90;1.67;;;;;;;12.19;100.00;101405.84;5117270;28;20069;-46
2022/09/18 11:25:23;;;;;;;6.00;1.30;;;;;;;12.30;100.00;101406.22;5116666;28;20024;-45
2022/09/18 11:27:57;;;;;;;6.35;1.15;;;;;;;12.36;100.00;101410.69;5116740;28;20512;-45
2022/09/18 11:30:26;;;;;;;7.72;1.60;;;;;;;12.45;100.00;101412.69;5117100;27;20028;-45